Time;durP1;ratioP1;P1;durP2;ratioP2;P2;SDS_P1;SDS_P2;PMS_P1;PMS_P2;Temp;Humidity;BMP_temperature;BMP_pressure;BME280_temperature;BME280_humidity;BME280_pressure;Samples;Min_cycle;Max_cycle;Signal;HPM_P1;HPM_P2
2022/07/28 00:02:21;;;;;;;4.00;3.90;;;18.50;99.90;;;;;;4953052;28;20672;-53
2022/07/28 00:04:48;;;;;;;5.23;4.63;;;18.50;99.90;;;;;;4950461;28;20212;-53
2022/07/28 00:07:15;;;;;;;4.07;3.80;;;18.50;99.90;;;;;;4953074;28;20252;-53
2022/07/28 00:09:44;;;;;;;4.13;3.97;;;18.40;99.90;;;;;;4952180;28;20639;-53
2022/07/28 00:12:11;;;;;;;4.27;4.07;;;18.40;99.90;;;;;;4956427;28;20248;-53
2022/07/28 00:14:37;;;;;;;4.57;4.17;;;18.40;99.90;;;;;;4953882;28;20410;-53
2022/07/28 00:17:04;;;;;;;4.27;4.07;;;18.50;99.90;;;;;;4956456;28;20256;-53
2022/07/28 00:19:32;;;;;;;4.27;4.10;;;18.50;99.90;;;;;;4956528;28;20240;-52
2022/07/28 00:21:59;;;;;;;4.90;4.63;;;18.50;99.90;;;;;;4950710;28;20228;-52
2022/07/28 00:24:26;;;;;;;3.83;3.73;;;18.50;99.90;;;;;;4951339;29;20201;-53
2022/07/28 00:26:54;;;;;;;4.63;4.43;;;18.40;99.90;;;;;;4956170;28;20217;-53
2022/07/28 00:29:21;;;;;;;4.07;3.87;;;18.30;99.90;;;;;;4954778;28;20205;-53
2022/07/28 00:31:48;;;;;;;5.27;4.37;;;18.20;99.90;;;;;;4955930;28;20318;-53
2022/07/28 00:34:15;;;;;;;4.63;4.33;;;18.20;99.90;;;;;;4954695;28;20214;-52
2022/07/28 00:36:42;;;;;;;4.30;4.10;;;18.10;99.90;;;;;;4956222;28;20281;-52
2022/07/28 00:39:09;;;;;;;4.27;4.07;;;18.10;99.90;;;;;;4954981;28;20201;-53
2022/07/28 00:41:36;;;;;;;4.77;4.57;;;18.10;99.90;;;;;;4956176;28;20221;-52
2022/07/28 00:44:07;;;;;;;4.47;4.17;;;18.00;99.90;;;;;;4949839;28;20238;-52
2022/07/28 00:46:34;;;;;;;4.93;4.60;;;18.00;99.90;;;;;;4954375;29;20223;-53
2022/07/28 00:49:01;;;;;;;4.50;4.40;;;18.00;99.90;;;;;;4954501;28;20236;-52
2022/07/28 00:51:29;;;;;;;4.80;4.60;;;18.00;99.90;;;;;;4955973;28;20626;-52
2022/07/28 00:53:56;;;;;;;4.57;4.17;;;18.00;99.90;;;;;;4955334;28;20633;-52
2022/07/28 00:56:24;;;;;;;6.10;5.70;;;18.00;99.90;;;;;;4952999;29;20243;-53
2022/07/28 00:58:51;;;;;;;5.03;4.60;;;18.00;99.90;;;;;;4950596;28;20258;-52
2022/07/28 01:01:20;;;;;;;4.20;4.07;;;18.00;99.90;;;;;;4951070;29;20272;-53
2022/07/28 01:03:50;;;;;;;4.83;4.53;;;17.90;99.90;;;;;;4941971;29;20212;-53
2022/07/28 01:06:31;;;;;;;5.20;4.90;;;17.90;99.90;;;;;;4953128;28;20228;-53
2022/07/28 01:09:06;;;;;;;4.43;4.27;;;17.90;99.90;;;;;;4947640;29;20741;-53
2022/07/28 01:11:42;;;;;;;5.10;4.90;;;17.90;99.90;;;;;;4955386;28;20901;-52
2022/07/28 01:14:16;;;;;;;5.20;4.50;;;17.90;99.90;;;;;;4946249;28;20207;-52
2022/07/28 01:16:52;;;;;;;5.17;4.97;;;17.90;99.90;;;;;;4953494;29;20279;-53
2022/07/28 01:19:33;;;;;;;5.37;5.13;;;17.90;99.90;;;;;;4953910;28;21010;-52
2022/07/28 01:22:01;;;;;;;6.03;5.50;;;17.80;99.90;;;;;;4954874;28;20220;-53
2022/07/28 01:24:33;;;;;;;5.23;5.03;;;17.80;99.90;;;;;;4951720;28;20251;-52
2022/07/28 01:27:04;;;;;;;5.77;5.43;;;17.80;99.90;;;;;;4955077;28;20213;-53
2022/07/28 01:30:01;;;;;;;5.43;5.03;;;17.80;99.90;;;;;;4952724;29;20228;-53
2022/07/28 01:32:35;;;;;;;4.53;4.33;;;17.80;99.90;;;;;;4953788;28;20648;-52
2022/07/28 01:35:08;;;;;;;5.27;4.97;;;17.80;99.90;;;;;;4955022;28;20288;-52
2022/07/28 01:37:42;;;;;;;5.70;5.47;;;17.80;99.90;;;;;;4955225;28;20245;-52
2022/07/28 01:40:13;;;;;;;5.73;5.43;;;17.70;99.90;;;;;;4954302;28;20571;-53
2022/07/28 01:42:44;;;;;;;5.83;5.63;;;17.70;99.90;;;;;;4954088;28;20635;-53
2022/07/28 01:45:13;;;;;;;4.80;4.53;;;17.60;99.90;;;;;;4955002;28;20300;-53
2022/07/28 01:47:44;;;;;;;5.37;5.07;;;17.50;99.90;;;;;;4955182;28;20237;-53
2022/07/28 01:50:13;;;;;;;6.07;5.87;;;17.50;99.90;;;;;;4954839;28;20288;-52
2022/07/28 01:52:42;;;;;;;5.93;5.43;;;17.50;99.90;;;;;;4953019;28;20805;-53
2022/07/28 01:55:11;;;;;;;5.47;5.17;;;17.60;99.90;;;;;;4954648;28;20284;-52
2022/07/28 01:57:42;;;;;;;5.87;5.50;;;17.60;99.90;;;;;;4954076;28;20209;-52
2022/07/28 02:00:12;;;;;;;5.67;5.30;;;17.70;99.90;;;;;;4954521;28;20264;-52
2022/07/28 02:02:42;;;;;;;5.77;5.27;;;17.80;99.90;;;;;;4953595;28;20276;-52
2022/07/28 02:05:13;;;;;;;5.90;5.33;;;17.80;99.90;;;;;;4947553;28;20616;-52
2022/07/28 02:07:42;;;;;;;6.43;6.03;;;17.80;99.90;;;;;;4953749;29;20233;-53
2022/07/28 02:10:11;;;;;;;5.87;5.57;;;17.70;99.90;;;;;;4954010;28;20354;-53
2022/07/28 02:12:39;;;;;;;6.57;6.27;;;17.70;99.90;;;;;;4953538;28;20687;-53
2022/07/28 02:15:10;;;;;;;5.80;5.40;;;17.70;99.90;;;;;;4954584;28;20233;-52
2022/07/28 02:17:41;;;;;;;4.70;4.60;;;17.60;99.90;;;;;;4953289;28;20627;-52
2022/07/28 02:20:11;;;;;;;5.80;5.50;;;17.50;99.90;;;;;;4954163;28;20589;-52
2022/07/28 02:22:40;;;;;;;5.00;4.67;;;17.40;99.90;;;;;;4953313;28;20280;-53
2022/07/28 02:25:08;;;;;;;5.67;5.27;;;17.40;99.90;;;;;;4954158;28;20726;-52
2022/07/28 02:27:39;;;;;;;6.20;5.90;;;17.30;99.90;;;;;;4949827;28;20622;-52
2022/07/28 02:30:10;;;;;;;4.90;4.80;;;17.30;99.90;;;;;;4952139;28;20208;-52
2022/07/28 02:32:40;;;;;;;5.20;5.00;;;17.20;99.90;;;;;;4951380;28;20247;-52
2022/07/28 02:35:15;;;;;;;5.27;4.97;;;17.20;99.90;;;;;;4951715;29;20308;-52
2022/07/28 02:37:49;;;;;;;5.13;4.93;;;17.10;99.90;;;;;;4950990;28;20644;-53
2022/07/28 02:40:19;;;;;;;5.67;5.23;;;17.00;99.90;;;;;;4949955;28;20260;-52
2022/07/28 02:42:49;;;;;;;6.23;5.87;;;17.00;99.90;;;;;;4947530;28;20221;-52
2022/07/28 02:45:18;;;;;;;6.00;5.63;;;17.00;99.90;;;;;;4952903;28;20225;-52
2022/07/28 02:47:49;;;;;;;5.40;5.10;;;17.00;99.90;;;;;;4944343;29;20675;-52
2022/07/28 02:50:23;;;;;;;5.23;5.00;;;17.00;99.90;;;;;;4953218;28;20205;-52
2022/07/28 02:52:52;;;;;;;5.13;4.93;;;16.90;99.90;;;;;;4949353;28;20209;-50
2022/07/28 02:55:20;;;;;;;6.27;5.97;;;17.00;99.90;;;;;;4955062;28;20271;-52
2022/07/28 02:57:48;;;;;;;7.20;6.70;;;17.00;99.90;;;;;;4953425;28;20632;-52
2022/07/28 03:00:15;;;;;;;5.47;5.23;;;17.00;99.90;;;;;;4954686;28;20733;-52
2022/07/28 03:02:45;;;;;;;5.67;5.37;;;17.00;99.90;;;;;;4952316;28;20220;-52
2022/07/28 03:05:13;;;;;;;6.73;6.23;;;16.90;99.90;;;;;;4970801;28;20239;-52
2022/07/28 03:07:43;;;;;;;5.93;5.73;;;16.90;99.90;;;;;;4958914;28;20286;-52
2022/07/28 03:10:21;;;;;;;6.13;5.83;;;16.90;99.90;;;;;;4949670;28;20679;-52
2022/07/28 03:12:48;;;;;;;5.90;5.53;;;17.00;99.90;;;;;;4955134;28;20197;-52
2022/07/28 03:15:16;;;;;;;6.97;6.30;;;16.90;99.90;;;;;;4948337;29;20295;-52
2022/07/28 03:17:43;;;;;;;6.73;6.33;;;16.90;99.90;;;;;;4948923;28;20498;-52
2022/07/28 03:20:11;;;;;;;6.20;5.90;;;16.90;99.90;;;;;;4943941;29;20710;-52
2022/07/28 03:22:39;;;;;;;6.87;6.47;;;16.90;99.90;;;;;;4947563;29;20228;-52
2022/07/28 03:25:13;;;;;;;7.63;7.23;;;16.90;99.90;;;;;;4952563;28;20327;-52
2022/07/28 03:27:45;;;;;;;7.13;6.53;;;16.90;99.90;;;;;;4950896;28;20211;-52
2022/07/28 03:30:16;;;;;;;6.63;6.33;;;16.90;99.90;;;;;;4951911;28;20201;-52
2022/07/28 03:32:48;;;;;;;7.67;6.97;;;16.80;99.90;;;;;;4950027;28;20291;-52
2022/07/28 03:35:15;;;;;;;7.07;6.60;;;16.80;99.90;;;;;;4958944;28;20229;-52
2022/07/28 03:37:58;;;;;;;10.13;7.87;;;16.80;99.90;;;;;;4958239;28;20237;-52
2022/07/28 03:40:29;;;;;;;7.00;6.47;;;16.80;99.90;;;;;;4950609;28;20630;-52
2022/07/28 03:42:57;;;;;;;6.57;6.13;;;16.90;99.90;;;;;;4953626;28;20589;-52
2022/07/28 03:45:25;;;;;;;6.00;5.70;;;16.90;99.90;;;;;;4955547;28;20247;-52
2022/07/28 03:47:54;;;;;;;7.00;6.37;;;16.90;99.90;;;;;;4961035;28;20198;-52
2022/07/28 03:50:23;;;;;;;6.00;5.70;;;16.90;99.90;;;;;;4951956;28;20352;-53
2022/07/28 03:52:50;;;;;;;7.23;6.83;;;16.90;99.90;;;;;;4957083;28;20201;-52
2022/07/28 03:55:17;;;;;;;5.33;5.13;;;16.90;99.90;;;;;;4957659;28;20267;-52
2022/07/28 03:57:46;;;;;;;5.77;5.37;;;16.80;99.90;;;;;;4972498;28;20283;-52
2022/07/28 04:00:14;;;;;;;6.00;5.73;;;16.80;99.90;;;;;;4967779;28;20303;-52
2022/07/28 04:02:42;;;;;;;6.70;6.30;;;16.80;99.90;;;;;;4953527;29;20579;-53
2022/07/28 04:05:11;;;;;;;7.33;6.93;;;16.70;99.90;;;;;;4946594;28;20267;-53
2022/07/28 04:07:38;;;;;;;6.13;5.70;;;16.70;99.90;;;;;;4962542;28;20239;-52
2022/07/28 04:10:08;;;;;;;6.77;6.40;;;16.70;99.90;;;;;;4962660;28;20201;-53
2022/07/28 04:12:47;;;;;;;6.97;6.60;;;16.60;99.90;;;;;;4958173;28;20194;-52
2022/07/28 04:15:14;;;;;;;6.43;6.07;;;16.60;99.90;;;;;;4954277;28;20706;-54
2022/07/28 04:17:42;;;;;;;6.83;6.37;;;16.60;99.90;;;;;;4952793;28;20210;-53
2022/07/28 04:20:10;;;;;;;6.70;6.30;;;16.50;99.90;;;;;;4949625;29;20197;-52
2022/07/28 04:22:37;;;;;;;6.20;5.90;;;16.50;99.90;;;;;;4954482;28;20316;-52
2022/07/28 04:25:05;;;;;;;7.10;6.60;;;16.50;99.90;;;;;;4956205;28;20710;-52
2022/07/28 04:27:31;;;;;;;6.97;6.67;;;16.50;99.90;;;;;;4955395;28;20830;-52
2022/07/28 04:30:00;;;;;;;7.00;6.50;;;16.60;99.90;;;;;;4953591;28;20260;-52
2022/07/28 04:32:27;;;;;;;7.60;7.10;;;16.60;99.90;;;;;;4955893;28;20659;-52
2022/07/28 04:34:54;;;;;;;6.17;5.83;;;16.70;99.90;;;;;;4950554;28;20202;-52
2022/07/28 04:37:20;;;;;;;8.70;6.60;;;16.80;99.90;;;;;;4956131;28;20213;-52
2022/07/28 04:39:49;;;;;;;7.27;6.70;;;16.90;99.90;;;;;;4942079;29;20205;-52
2022/07/28 04:42:17;;;;;;;6.07;5.77;;;17.00;99.90;;;;;;4954655;29;20208;-52
2022/07/28 04:44:44;;;;;;;8.23;7.63;;;17.10;99.90;;;;;;4954220;28;20310;-52
2022/07/28 04:47:13;;;;;;;7.50;7.03;;;17.20;99.90;;;;;;4947809;28;20679;-52
2022/07/28 04:49:40;;;;;;;7.80;7.40;;;17.30;99.90;;;;;;4955029;28;20209;-52
2022/07/28 04:52:07;;;;;;;7.17;6.70;;;17.40;99.90;;;;;;4954786;28;20671;-52
2022/07/28 04:54:34;;;;;;;7.30;6.90;;;17.50;99.90;;;;;;4953588;28;20295;-53
2022/07/28 04:57:01;;;;;;;8.63;8.10;;;17.60;99.90;;;;;;4947468;29;20271;-52
2022/07/28 04:59:28;;;;;;;9.10;8.33;;;17.90;99.90;;;;;;4953837;28;20235;-52
2022/07/28 05:01:56;;;;;;;8.63;8.00;;;18.20;99.90;;;;;;4953188;28;20205;-52
2022/07/28 05:04:24;;;;;;;8.80;8.30;;;18.60;99.90;;;;;;4951374;28;20809;-52
2022/07/28 05:06:51;;;;;;;7.90;7.50;;;19.20;99.90;;;;;;4948153;29;20268;-52
2022/07/28 05:09:18;;;;;;;8.30;7.77;;;19.90;99.90;;;;;;4952581;28;20260;-52
2022/07/28 05:11:45;;;;;;;7.70;7.23;;;20.60;99.90;;;;;;4951759;29;20205;-52
2022/07/28 05:14:13;;;;;;;7.10;6.50;;;21.10;99.90;;;;;;4953378;28;20248;-53
2022/07/28 05:16:40;;;;;;;8.63;7.97;;;21.80;99.90;;;;;;4954324;28;20260;-52
2022/07/28 05:19:07;;;;;;;6.10;5.77;;;22.40;99.90;;;;;;4951104;28;20200;-52
2022/07/28 05:21:35;;;;;;;6.43;6.03;;;23.00;99.90;;;;;;4952055;29;20201;-52
2022/07/28 05:24:02;;;;;;;5.83;5.63;;;23.40;99.90;;;;;;4951797;28;20257;-53
2022/07/28 05:26:31;;;;;;;6.37;6.07;;;23.90;99.90;;;;;;4954334;28;20221;-52
2022/07/28 05:28:58;;;;;;;6.80;6.20;;;24.20;99.90;;;;;;4946933;28;20714;-53
2022/07/28 05:31:25;;;;;;;7.53;7.03;;;24.40;99.90;;;;;;4949709;28;20358;-53
2022/07/28 05:33:52;;;;;;;6.47;6.10;;;24.60;99.90;;;;;;4954068;28;20229;-53
2022/07/28 05:36:19;;;;;;;6.13;5.73;;;24.70;99.90;;;;;;4950725;28;20634;-53
2022/07/28 05:38:48;;;;;;;5.60;5.37;;;25.20;99.90;;;;;;4953002;29;20655;-53
2022/07/28 05:41:15;;;;;;;5.87;5.57;;;25.30;99.90;;;;;;4951270;28;20264;-54
2022/07/28 05:43:44;;;;;;;3.57;3.30;;;25.10;99.90;;;;;;4954876;28;20228;-54
2022/07/28 05:46:11;;;;;;;3.57;3.47;;;25.20;99.90;;;;;;4945228;28;20308;-54
2022/07/28 05:48:38;;;;;;;3.53;3.40;;;25.00;99.90;;;;;;4945989;28;20205;-54
2022/07/28 05:51:05;;;;;;;4.40;3.47;;;25.30;99.90;;;;;;4949063;28;20201;-53
2022/07/28 05:53:32;;;;;;;3.30;3.10;;;25.50;99.90;;;;;;4959683;28;20232;-53
2022/07/28 05:56:00;;;;;;;3.20;3.10;;;25.60;99.90;;;;;;4951702;28;20672;-54
2022/07/28 05:58:28;;;;;;;3.47;3.27;;;26.40;99.90;;;;;;4956752;28;20197;-54
2022/07/28 06:00:58;;;;;;;3.27;3.17;;;26.20;99.90;;;;;;4952475;28;20256;-54
2022/07/28 06:03:25;;;;;;;2.95;2.85;;;26.70;99.90;;;;;;4956521;28;20284;-54
2022/07/28 06:05:55;;;;;;;3.23;3.00;;;27.20;99.90;;;;;;4950963;28;20225;-54
2022/07/28 06:08:23;;;;;;;3.40;3.15;;;27.50;99.90;;;;;;4947759;29;20201;-54
2022/07/28 06:11:07;;;;;;;3.00;2.90;;;28.00;99.90;;;;;;4952579;28;20304;-54
2022/07/28 06:13:39;;;;;;;3.42;3.17;;;28.30;99.90;;;;;;4951422;28;20201;-54
2022/07/28 06:16:07;;;;;;;3.03;2.83;;;28.90;99.90;;;;;;4959711;28;20279;-54
2022/07/28 06:18:34;;;;;;;3.03;2.92;;;29.50;99.90;;;;;;4949875;28;20300;-54
2022/07/28 06:21:01;;;;;;;2.58;2.47;;;29.90;99.90;;;;;;4956088;28;20288;-54
2022/07/28 06:23:28;;;;;;;2.95;2.85;;;29.80;99.90;;;;;;4966630;28;20352;-54
2022/07/28 06:25:55;;;;;;;3.00;2.80;;;29.90;99.90;;;;;;4955331;28;20248;-54
2022/07/28 06:28:22;;;;;;;3.50;3.33;;;30.00;99.90;;;;;;4956952;28;20205;-54
2022/07/28 06:30:50;;;;;;;2.90;2.70;;;30.20;99.90;;;;;;4954222;28;20197;-54
2022/07/28 06:33:18;;;;;;;2.88;2.78;;;30.50;99.90;;;;;;4961844;28;20193;-54
2022/07/28 06:35:45;;;;;;;3.05;2.95;;;30.80;99.90;;;;;;4963715;28;20228;-53
2022/07/28 06:38:12;;;;;;;7.05;3.53;;;30.90;99.90;;;;;;4963439;28;20204;-54
2022/07/28 06:40:39;;;;;;;3.53;2.58;;;30.80;99.90;;;;;;4949604;28;20212;-54
2022/07/28 06:43:07;;;;;;;3.28;3.13;;;30.80;99.90;;;;;;4953863;28;20276;-54
2022/07/28 06:45:34;;;;;;;4.22;2.83;;;30.70;99.90;;;;;;4959552;28;20224;-54
2022/07/28 06:48:02;;;;;;;2.75;2.70;;;30.80;99.90;;;;;;4953011;28;20308;-54
2022/07/28 06:50:29;;;;;;;2.95;2.83;;;30.90;99.90;;;;;;4952178;28;20619;-54
2022/07/28 06:52:57;;;;;;;3.72;3.13;;;31.10;99.90;;;;;;4952954;28;20232;-54
2022/07/28 06:55:25;;;;;;;3.22;3.10;;;30.90;99.90;;;;;;4962105;28;20287;-54
2022/07/28 06:57:52;;;;;;;4.20;3.80;;;31.30;99.90;;;;;;4965195;28;20667;-54
2022/07/28 07:00:19;;;;;;;3.85;3.67;;;31.40;99.90;;;;;;4967668;28;20284;-54
2022/07/28 07:02:46;;;;;;;3.45;3.30;;;31.30;99.90;;;;;;4953245;28;20209;-54
2022/07/28 07:05:14;;;;;;;2.88;2.72;;;31.00;99.90;;;;;;4953696;28;20288;-54
2022/07/28 07:07:41;;;;;;;3.78;3.63;;;31.40;99.90;;;;;;4952937;28;20275;-54
2022/07/28 07:10:09;;;;;;;2.97;2.85;;;31.20;99.90;;;;;;4950812;28;20213;-55
2022/07/28 07:12:36;;;;;;;4.70;2.75;;;31.30;99.90;;;;;;4945303;28;20205;-54
2022/07/28 07:15:04;;;;;;;7.10;3.63;;;31.80;99.90;;;;;;4952367;28;20201;-54
2022/07/28 07:17:31;;;;;;;4.68;4.25;;;32.10;99.90;;;;;;4944171;28;20209;-54
2022/07/28 07:19:58;;;;;;;3.95;3.75;;;32.40;99.20;;;;;;4951504;28;20205;-54
2022/07/28 07:22:26;;;;;;;4.18;3.90;;;31.80;99.70;;;;;;4952166;28;20617;-54
2022/07/28 07:24:53;;;;;;;3.92;3.83;;;31.90;99.70;;;;;;4945496;29;20256;-54
2022/07/28 07:27:20;;;;;;;4.18;3.97;;;31.40;99.90;;;;;;4953253;28;20584;-54
2022/07/28 07:29:47;;;;;;;3.92;3.83;;;30.40;99.90;;;;;;4946707;28;20237;-54
2022/07/28 07:32:14;;;;;;;4.10;3.90;;;30.80;99.90;;;;;;4953208;28;20248;-54
2022/07/28 07:34:41;;;;;;;4.57;4.28;;;31.10;99.90;;;;;;4952303;28;20292;-54
2022/07/28 07:37:12;;;;;;;4.20;4.00;;;31.30;99.90;;;;;;4955922;28;20263;-54
2022/07/28 07:39:41;;;;;;;4.75;4.55;;;31.80;99.90;;;;;;4952318;28;20713;-54
2022/07/28 07:42:08;;;;;;;4.72;4.32;;;31.40;99.90;;;;;;4952636;28;20201;-54
2022/07/28 07:44:35;;;;;;;5.13;4.75;;;31.00;99.90;;;;;;4952623;28;20228;-54
2022/07/28 07:47:02;;;;;;;4.72;4.43;;;30.60;99.90;;;;;;4953203;28;20229;-54
2022/07/28 07:49:29;;;;;;;4.95;4.57;;;30.50;99.90;;;;;;4950654;28;20209;-54
2022/07/28 07:51:56;;;;;;;4.90;4.40;;;30.40;99.90;;;;;;4952504;28;20283;-54
2022/07/28 07:54:23;;;;;;;5.40;4.70;;;29.90;99.90;;;;;;4952948;28;20256;-54
2022/07/28 07:56:51;;;;;;;4.43;4.22;;;30.20;99.90;;;;;;4953143;28;20305;-54
2022/07/28 07:59:18;;;;;;;4.95;4.63;;;29.90;99.90;;;;;;4951779;28;20201;-54
2022/07/28 08:01:49;;;;;;;5.63;5.32;;;29.40;99.90;;;;;;4953178;28;20651;-54
2022/07/28 08:04:16;;;;;;;6.78;6.15;;;29.60;99.90;;;;;;4953037;28;20295;-54
2022/07/28 08:06:43;;;;;;;6.63;6.18;;;29.20;99.90;;;;;;4952771;28;20260;-54
2022/07/28 08:09:10;;;;;;;4.50;4.30;;;29.00;99.90;;;;;;4951824;28;20261;-54
2022/07/28 08:11:37;;;;;;;5.40;5.18;;;28.60;99.90;;;;;;4953019;28;20762;-54
2022/07/28 08:14:05;;;;;;;6.55;6.10;;;29.40;99.90;;;;;;4952841;28;20714;-54
2022/07/28 08:16:32;;;;;;;5.30;5.10;;;29.90;99.90;;;;;;4954058;28;20271;-54
2022/07/28 08:18:59;;;;;;;5.50;5.30;;;30.40;99.90;;;;;;4952808;28;20209;-54
2022/07/28 08:21:26;;;;;;;5.50;3.97;;;30.20;99.90;;;;;;4954075;28;20275;-54
2022/07/28 08:23:56;;;;;;;5.32;4.97;;;30.40;99.90;;;;;;4955374;28;20225;-54
2022/07/28 08:26:23;;;;;;;5.55;5.25;;;30.30;99.90;;;;;;4955352;28;20225;-54
2022/07/28 08:28:50;;;;;;;5.72;5.43;;;30.70;99.90;;;;;;4951938;28;20614;-54
2022/07/28 08:31:20;;;;;;;4.60;4.40;;;31.00;99.90;;;;;;4954967;28;20198;-54
2022/07/28 08:33:47;;;;;;;4.70;4.60;;;31.20;99.90;;;;;;4951486;29;20297;-54
2022/07/28 08:36:15;;;;;;;6.30;5.97;;;31.40;99.90;;;;;;4950387;29;21776;-54
2022/07/28 08:38:44;;;;;;;6.70;6.30;;;31.20;99.90;;;;;;4954816;28;20801;-54
2022/07/28 08:41:17;;;;;;;5.63;5.25;;;30.50;99.90;;;;;;4951499;28;20261;-54
2022/07/28 08:43:49;;;;;;;5.60;5.28;;;30.70;99.90;;;;;;4955861;28;20284;-54
2022/07/28 08:46:19;;;;;;;6.88;5.80;;;30.80;99.90;;;;;;4951408;28;20287;-54
2022/07/28 08:48:48;;;;;;;6.68;6.28;;;31.10;99.90;;;;;;4950757;29;20679;-54
2022/07/28 08:51:16;;;;;;;6.18;5.78;;;31.10;99.90;;;;;;4951868;28;20229;-54
2022/07/28 08:53:43;;;;;;;4.97;4.70;;;31.20;99.90;;;;;;4955131;28;20248;-54
2022/07/28 08:56:14;;;;;;;7.05;6.57;;;30.80;99.90;;;;;;4954403;28;20249;-54
2022/07/28 08:58:45;;;;;;;6.65;6.15;;;30.30;99.90;;;;;;4954854;28;20217;-54
2022/07/28 09:01:12;;;;;;;6.47;6.05;;;29.70;99.90;;;;;;4954994;28;20212;-54
2022/07/28 09:03:44;;;;;;;6.68;6.07;;;28.90;99.90;;;;;;4946830;28;20246;-54
2022/07/28 09:06:11;;;;;;;5.35;5.00;;;29.40;99.90;;;;;;4948807;28;20289;-54
2022/07/28 09:08:38;;;;;;;7.15;6.70;;;29.90;99.90;;;;;;4954005;28;20280;-54
2022/07/28 09:11:06;;;;;;;6.32;5.93;;;30.10;99.90;;;;;;4954684;28;20242;-54
2022/07/28 09:13:35;;;;;;;7.28;6.78;;;29.70;99.90;;;;;;4947493;28;20201;-54
2022/07/28 09:16:02;;;;;;;6.28;5.78;;;29.10;99.90;;;;;;4954670;28;20634;-54
2022/07/28 09:18:29;;;;;;;7.05;6.45;;;29.20;99.90;;;;;;4954163;29;20559;-54
2022/07/28 09:20:58;;;;;;;7.15;6.63;;;29.70;99.90;;;;;;4954559;28;20271;-54
2022/07/28 09:23:25;;;;;;;6.95;6.65;;;29.30;99.90;;;;;;4949932;28;20205;-54
2022/07/28 09:26:06;;;;;;;6.35;5.97;;;29.40;99.90;;;;;;4955395;28;20304;-54
2022/07/28 09:28:45;;;;;;;6.43;6.10;;;29.40;99.90;;;;;;4954965;29;20326;-54
2022/07/28 09:31:13;;;;;;;6.40;6.00;;;29.70;99.90;;;;;;4954302;28;20285;-54
2022/07/28 09:33:53;;;;;;;5.95;5.65;;;29.90;99.90;;;;;;4955195;29;20308;-55
2022/07/28 09:36:21;;;;;;;6.10;5.80;;;30.10;99.90;;;;;;4953556;28;20248;-54
2022/07/28 09:38:49;;;;;;;7.13;6.75;;;30.20;99.90;;;;;;4954580;28;20729;-54
2022/07/28 09:41:20;;;;;;;6.35;5.95;;;29.80;99.90;;;;;;4953848;28;20225;-54
2022/07/28 09:43:48;;;;;;;7.57;6.80;;;29.20;99.90;;;;;;4950977;28;20206;-54
2022/07/28 09:46:17;;;;;;;6.60;6.28;;;28.80;99.90;;;;;;4966024;28;20229;-53
2022/07/28 09:48:52;;;;;;;6.72;6.32;;;28.50;99.90;;;;;;4963222;28;20738;-54
2022/07/28 09:51:23;;;;;;;6.78;6.47;;;28.50;99.90;;;;;;4954137;28;20276;-54
2022/07/28 09:53:51;;;;;;;6.82;6.40;;;28.50;99.90;;;;;;4953847;28;20290;-54
2022/07/28 09:56:18;;;;;;;6.22;5.82;;;28.60;99.90;;;;;;4953080;28;20221;-54
2022/07/28 09:58:54;;;;;;;6.70;6.35;;;29.00;99.90;;;;;;4957773;28;20276;-54
2022/07/28 10:01:21;;;;;;;6.13;5.78;;;29.00;99.90;;;;;;4957976;28;20200;-54
2022/07/28 10:03:52;;;;;;;5.93;5.63;;;29.20;99.90;;;;;;4970644;28;20200;-54
2022/07/28 10:06:28;;;;;;;6.28;6.05;;;29.30;99.90;;;;;;4952997;28;20383;-54
2022/07/28 10:08:56;;;;;;;7.07;6.68;;;29.40;99.90;;;;;;4958221;28;20224;-54
2022/07/28 10:11:26;;;;;;;4.75;4.55;;;28.90;99.90;;;;;;4953945;28;20201;-54
2022/07/28 10:14:03;;;;;;;5.47;5.10;;;29.20;99.90;;;;;;4959484;28;20219;-54
2022/07/28 10:16:31;;;;;;;5.60;5.10;;;29.50;99.90;;;;;;4948731;28;20351;-54
2022/07/28 10:18:59;;;;;;;4.00;3.80;;;29.70;99.90;;;;;;4960674;28;20288;-54
2022/07/28 10:21:31;;;;;;;5.22;4.93;;;30.10;99.90;;;;;;4971640;28;20196;-54
2022/07/28 10:24:02;;;;;;;4.32;4.13;;;30.30;99.90;;;;;;4971651;28;20293;-54
2022/07/28 10:26:31;;;;;;;4.95;4.72;;;30.50;99.90;;;;;;4968335;28;20221;-54
2022/07/28 10:29:04;;;;;;;4.70;4.50;;;30.40;99.90;;;;;;4960260;28;20208;-54
2022/07/28 10:31:43;;;;;;;4.28;3.92;;;29.80;99.90;;;;;;4960011;28;20209;-54
2022/07/28 10:34:17;;;;;;;4.90;4.70;;;29.60;99.90;;;;;;4953500;28;20696;-54
2022/07/28 10:36:48;;;;;;;4.22;4.00;;;30.00;99.90;;;;;;4951662;28;20823;-54
2022/07/28 10:39:19;;;;;;;4.45;4.15;;;29.70;99.90;;;;;;4956772;28;20622;-54
2022/07/28 10:41:46;;;;;;;4.55;4.15;;;29.20;99.90;;;;;;4971008;28;20211;-54
2022/07/28 10:44:17;;;;;;;4.40;4.15;;;29.30;99.90;;;;;;4958377;28;20208;-54
2022/07/28 10:46:45;;;;;;;3.13;3.03;;;29.40;99.90;;;;;;4952264;28;20246;-54
2022/07/28 10:49:14;;;;;;;4.07;3.47;;;29.70;99.90;;;;;;4958090;28;20298;-54
2022/07/28 10:51:45;;;;;;;3.78;3.67;;;29.60;99.90;;;;;;4967121;28;20201;-54
2022/07/28 10:54:21;;;;;;;3.88;3.67;;;29.90;99.90;;;;;;4952316;28;20232;-53
2022/07/28 10:56:51;;;;;;;4.45;3.78;;;29.60;99.90;;;;;;4947630;28;20224;-54
2022/07/28 10:59:48;;;;;;;3.63;3.50;;;29.40;99.90;;;;;;4959582;28;20205;-54
2022/07/28 11:02:50;;;;;;;5.63;5.00;;;28.90;99.90;;;;;;4950400;28;20208;-54
2022/07/28 11:05:42;;;;;;;4.68;4.25;;;28.50;99.90;;;;;;4952984;28;20259;-54
2022/07/28 11:08:26;;;;;;;4.57;4.38;;;28.40;99.90;;;;;;4951991;28;20197;-54
2022/07/28 11:10:55;;;;;;;5.50;5.00;;;28.60;99.90;;;;;;4946417;29;20209;-54
2022/07/28 11:13:28;;;;;;;4.15;4.00;;;28.40;99.90;;;;;;4947557;28;20679;-54
2022/07/28 11:15:56;;;;;;;4.90;4.68;;;28.20;99.90;;;;;;4953346;28;20320;-54
2022/07/28 11:18:23;;;;;;;5.18;4.65;;;28.40;99.90;;;;;;4949872;28;20197;-55
2022/07/28 11:21:06;;;;;;;5.10;4.95;;;28.80;99.90;;;;;;4952531;28;20361;-54
2022/07/28 11:23:53;;;;;;;4.43;4.22;;;28.80;99.90;;;;;;4953474;28;20344;-54
2022/07/28 11:26:38;;;;;;;4.35;4.15;;;28.60;99.90;;;;;;4953247;28;20284;-54
2022/07/28 11:29:15;;;;;;;5.05;4.85;;;28.40;99.90;;;;;;4947633;29;20627;-54
2022/07/28 11:32:02;;;;;;;4.55;4.22;;;28.40;99.90;;;;;;4952985;28;20209;-54
2022/07/28 11:35:06;;;;;;;4.18;4.07;;;28.20;99.90;;;;;;4947451;28;20563;-54
2022/07/28 11:38:12;;;;;;;4.80;4.47;;;28.30;99.90;;;;;;4948907;28;20201;-54
2022/07/28 11:40:41;;;;;;;4.50;4.20;;;28.40;99.90;;;;;;4951768;28;20205;-54
2022/07/28 11:43:34;;;;;;;4.18;3.97;;;28.60;99.90;;;;;;4953095;28;20678;-54
2022/07/28 11:46:41;;;;;;;4.25;3.95;;;28.80;99.90;;;;;;4946814;28;20649;-54
2022/07/28 11:49:23;;;;;;;3.40;3.30;;;28.40;99.90;;;;;;4949590;28;20246;-54
2022/07/28 11:52:10;;;;;;;4.07;3.90;;;28.60;99.90;;;;;;4946153;28;20228;-54
2022/07/28 11:54:38;;;;;;;5.13;4.80;;;28.30;99.90;;;;;;4944776;28;20201;-54
2022/07/28 11:57:08;;;;;;;4.97;4.53;;;28.10;99.90;;;;;;4949523;29;20256;-54
2022/07/28 12:00:01;;;;;;;4.70;4.40;;;28.10;99.90;;;;;;4952507;28;20193;-54
2022/07/28 12:02:30;;;;;;;4.75;4.35;;;28.30;99.90;;;;;;4951041;28;20581;-54
2022/07/28 12:05:12;;;;;;;4.13;3.92;;;28.10;99.90;;;;;;4953809;28;20697;-54
2022/07/28 12:07:43;;;;;;;5.95;5.53;;;28.20;99.90;;;;;;4955705;28;20255;-54
2022/07/28 12:10:23;;;;;;;5.60;5.13;;;28.30;99.90;;;;;;4955540;28;20205;-54
2022/07/28 12:12:51;;;;;;;4.05;3.95;;;28.20;99.90;;;;;;4949075;29;20816;-54
2022/07/28 12:15:21;;;;;;;5.15;4.75;;;28.20;99.90;;;;;;4956628;28;20288;-54
2022/07/28 12:17:49;;;;;;;4.25;4.00;;;28.10;99.90;;;;;;4955833;28;20201;-54
2022/07/28 12:20:17;;;;;;;4.35;4.22;;;28.10;99.90;;;;;;4956130;28;20197;-54
2022/07/28 12:22:55;;;;;;;5.03;4.80;;;28.10;99.90;;;;;;4957184;28;20248;-54
2022/07/28 12:25:22;;;;;;;5.82;5.63;;;28.00;99.90;;;;;;4957776;28;20252;-54
2022/07/28 12:27:49;;;;;;;4.95;4.65;;;28.00;99.90;;;;;;4953204;28;20346;-54
2022/07/28 12:30:24;;;;;;;4.97;4.72;;;28.10;99.90;;;;;;4955123;28;20205;-54
2022/07/28 12:32:52;;;;;;;4.70;4.32;;;28.20;99.90;;;;;;4955620;28;20201;-54
2022/07/28 12:35:20;;;;;;;4.32;4.18;;;28.20;99.90;;;;;;4955387;28;20209;-54
2022/07/28 12:37:48;;;;;;;4.65;4.20;;;28.10;99.90;;;;;;4961613;28;20206;-54
2022/07/28 12:40:16;;;;;;;4.38;4.07;;;28.10;99.90;;;;;;4960392;28;20205;-54
2022/07/28 12:42:43;;;;;;;4.32;4.13;;;27.90;99.90;;;;;;4973502;28;20203;-54
2022/07/28 12:45:11;;;;;;;4.57;4.28;;;27.90;99.90;;;;;;4951706;28;20279;-54
2022/07/28 12:47:40;;;;;;;4.97;4.68;;;28.10;99.90;;;;;;4960836;28;20275;-54
2022/07/28 12:50:12;;;;;;;5.35;5.05;;;28.20;99.90;;;;;;4960611;28;20790;-54
2022/07/28 12:52:39;;;;;;;5.30;4.95;;;28.10;99.90;;;;;;4954903;29;20698;-54
2022/07/28 12:55:21;;;;;;;4.57;4.25;;;28.00;99.90;;;;;;4955832;28;20256;-54
2022/07/28 12:57:50;;;;;;;5.78;5.32;;;28.00;99.90;;;;;;4956059;28;20297;-54
2022/07/28 13:00:20;;;;;;;4.80;4.53;;;28.20;99.90;;;;;;4955873;28;20240;-54
2022/07/28 13:02:49;;;;;;;5.03;4.82;;;28.20;99.90;;;;;;4954579;28;20718;-54
2022/07/28 13:05:31;;;;;;;4.20;3.88;;;28.30;99.90;;;;;;4955396;28;20236;-54